Time;durP1;ratioP1;P1;durP2;ratioP2;P2;SDS_P1;SDS_P2;PMS_P1;PMS_P2;Temp;Humidity;BMP_temperature;BMP_pressure;BME280_temperature;BME280_humidity;BME280_pressure;Samples;Min_cycle;Max_cycle;Signal;HPM_P1;HPM_P2
2023/02/06 00:01:50;;;;;;;12.47;7.53;;;1.30;99.90;;;;;;4977358;28;20311;-87
2023/02/06 00:04:25;;;;;;;11.17;7.97;;;1.30;99.90;;;;;;4975993;28;20660;-87
2023/02/06 00:06:51;;;;;;;14.47;7.90;;;1.30;99.90;;;;;;4959762;28;20216;-88
2023/02/06 00:09:17;;;;;;;12.30;7.60;;;1.40;99.90;;;;;;4959554;28;20613;-88
2023/02/06 00:11:42;;;;;;;14.80;7.70;;;1.30;99.90;;;;;;4958594;29;20189;-88
2023/02/06 00:14:09;;;;;;;10.97;7.67;;;1.40;99.90;;;;;;4957789;28;20196;-87
2023/02/06 00:16:35;;;;;;;12.00;7.13;;;1.40;99.90;;;;;;4957736;29;20180;-88
2023/02/06 00:19:02;;;;;;;12.07;7.57;;;1.40;99.90;;;;;;4957684;29;20228;-88
2023/02/06 00:21:28;;;;;;;13.70;8.00;;;1.40;99.90;;;;;;4958168;29;20220;-87
2023/02/06 00:23:56;;;;;;;11.17;7.80;;;1.50;99.90;;;;;;4958257;29;20185;-86
2023/02/06 00:26:23;;;;;;;11.17;7.47;;;1.50;99.90;;;;;;4957696;29;20181;-88
2023/02/06 00:28:49;;;;;;;11.30;7.70;;;1.50;99.90;;;;;;4957553;29;20181;-91
2023/02/06 00:31:16;;;;;;;12.40;7.57;;;1.50;99.90;;;;;;4959409;28;20180;-88
2023/02/06 00:33:42;;;;;;;11.27;7.17;;;1.50;99.90;;;;;;4957676;29;20185;-87
2023/02/06 00:36:14;;;;;;;11.40;7.20;;;1.50;99.90;;;;;;4974206;28;20180;-88
2023/02/06 00:38:39;;;;;;;11.03;7.03;;;1.50;99.90;;;;;;4977628;28;20670;-87
2023/02/06 00:41:05;;;;;;;10.90;7.03;;;1.50;99.90;;;;;;4977912;28;20208;-88
2023/02/06 00:43:31;;;;;;;10.77;6.67;;;1.50;99.90;;;;;;4976997;28;20176;-88
2023/02/06 00:45:58;;;;;;;9.97;6.60;;;1.50;99.90;;;;;;4977248;28;20296;-86
2023/02/06 00:48:24;;;;;;;10.67;7.00;;;1.40;99.90;;;;;;4978099;28;20219;-90
2023/02/06 00:50:51;;;;;;;13.40;8.10;;;1.50;99.90;;;;;;4976789;28;20199;-88
2023/02/06 00:53:17;;;;;;;10.37;7.13;;;1.50;99.90;;;;;;4976486;28;20497;-87
2023/02/06 00:55:43;;;;;;;12.47;7.30;;;1.50;99.90;;;;;;4976740;28;20180;-87
2023/02/06 00:58:09;;;;;;;14.80;7.13;;;1.50;99.90;;;;;;4977075;28;20271;-88
2023/02/06 01:00:35;;;;;;;11.57;7.57;;;1.50;99.90;;;;;;4976326;28;20211;-88
2023/02/06 01:03:01;;;;;;;12.00;7.27;;;1.50;99.90;;;;;;4976656;28;20787;-88
2023/02/06 01:05:28;;;;;;;14.33;7.53;;;1.50;99.90;;;;;;4976809;28;20196;-86
2023/02/06 01:07:54;;;;;;;17.37;8.73;;;1.60;99.90;;;;;;4976112;28;20180;-88
2023/02/06 01:10:20;;;;;;;16.83;8.30;;;1.60;99.90;;;;;;4977597;28;20229;-87
2023/02/06 01:12:45;;;;;;;18.20;8.80;;;1.60;99.90;;;;;;4976429;28;20184;-89
2023/02/06 01:15:17;;;;;;;17.77;9.27;;;1.60;99.90;;;;;;4977583;28;20508;-88
2023/02/06 01:17:43;;;;;;;15.23;8.53;;;1.60;99.90;;;;;;4976256;28;20180;-89
2023/02/06 01:20:12;;;;;;;17.60;8.93;;;1.60;99.90;;;;;;4976154;28;20218;-89
2023/02/06 01:22:39;;;;;;;21.47;8.67;;;1.60;99.90;;;;;;4976430;28;20235;-89
2023/02/06 01:25:05;;;;;;;18.83;9.30;;;1.60;99.90;;;;;;4977676;28;20609;-88
2023/02/06 01:27:33;;;;;;;23.37;10.07;;;1.60;99.90;;;;;;4976074;28;20186;-88
2023/02/06 01:29:59;;;;;;;16.43;9.33;;;1.60;99.90;;;;;;4977292;28;20212;-88
2023/02/06 01:32:25;;;;;;;22.33;11.23;;;1.70;99.90;;;;;;4975929;28;20188;-86
2023/02/06 01:34:53;;;;;;;23.97;10.00;;;1.60;99.90;;;;;;4977211;28;20666;-87
2023/02/06 01:37:19;;;;;;;25.63;10.87;;;1.60;99.90;;;;;;4977584;28;20172;-88
2023/02/06 01:39:45;;;;;;;31.87;11.63;;;1.50;99.90;;;;;;4977349;28;20177;-88
2023/02/06 01:42:12;;;;;;;30.00;11.43;;;1.50;99.90;;;;;;4976279;28;20567;-88
2023/02/06 01:44:38;;;;;;;24.30;11.67;;;1.50;99.90;;;;;;4975574;28;20204;-92
2023/02/06 01:47:11;;;;;;;31.33;12.33;;;1.50;99.90;;;;;;4976920;28;20191;-88
2023/02/06 01:49:38;;;;;;;28.90;12.90;;;1.50;99.90;;;;;;4975788;28;20181;-90
2023/02/06 01:52:20;;;;;;;37.57;13.37;;;1.60;99.90;;;;;;4977079;28;20196;-88
2023/02/06 01:54:50;;;;;;;31.87;13.60;;;1.60;99.90;;;;;;4975839;28;20188;-88
2023/02/06 01:57:17;;;;;;;29.20;13.20;;;1.50;99.90;;;;;;4976088;28;20169;-90
2023/02/06 01:59:48;;;;;;;42.57;14.37;;;1.50;99.90;;;;;;4975003;28;20564;-90
2023/02/06 02:02:13;;;;;;;27.27;12.47;;;1.50;99.90;;;;;;4975742;28;20187;-90
2023/02/06 02:04:40;;;;;;;35.83;14.00;;;1.50;99.90;;;;;;4971032;28;20549;-89
2023/02/06 02:07:26;;;;;;;32.67;13.57;;;1.50;99.90;;;;;;4957081;29;20177;-87
2023/02/06 02:09:52;;;;;;;35.80;14.50;;;1.60;99.90;;;;;;4955228;29;20187;-89
2023/02/06 02:12:18;;;;;;;33.93;13.73;;;1.60;99.90;;;;;;4955026;28;20177;-87
2023/02/06 02:14:47;;;;;;;32.10;13.93;;;1.60;99.90;;;;;;4956149;29;20181;-88
2023/02/06 02:17:37;;;;;;;35.77;14.33;;;1.60;99.90;;;;;;4956568;29;20631;-88
2023/02/06 02:20:21;;;;;;;36.67;13.97;;;1.60;99.90;;;;;;4955520;29;20279;-87
2023/02/06 02:23:24;;;;;;;31.20;14.00;;;1.60;99.90;;;;;;4971721;28;20185;-88
2023/02/06 02:25:59;;;;;;;35.60;14.93;;;1.50;99.90;;;;;;4972305;28;20524;-88
2023/02/06 02:29:06;;;;;;;36.83;15.80;;;1.60;99.90;;;;;;4957175;28;20252;-88
2023/02/06 02:31:50;;;;;;;32.97;14.87;;;1.50;99.90;;;;;;4951221;29;20556;-87
2023/02/06 02:34:53;;;;;;;42.60;16.10;;;1.60;99.90;;;;;;4956586;28;20628;-88
2023/02/06 02:37:48;;;;;;;39.50;17.33;;;1.60;99.90;;;;;;4971956;28;20766;-87
2023/02/06 02:40:41;;;;;;;38.20;16.13;;;1.60;99.90;;;;;;4957184;28;20279;-87
2023/02/06 02:43:18;;;;;;;36.63;16.83;;;1.60;99.90;;;;;;4938077;29;20215;-88
2023/02/06 02:45:57;;;;;;;35.33;15.80;;;1.60;99.90;;;;;;4955605;29;20188;-89
2023/02/06 02:48:28;;;;;;;41.73;17.43;;;1.60;99.90;;;;;;4956228;28;20259;-87
2023/02/06 02:50:55;;;;;;;45.27;17.00;;;1.60;99.90;;;;;;4955015;29;20229;-89
2023/02/06 02:53:21;;;;;;;35.70;16.80;;;1.60;99.90;;;;;;4955691;29;20303;-88
2023/02/06 02:55:47;;;;;;;37.90;17.27;;;1.60;99.90;;;;;;4955606;28;20271;-88
2023/02/06 02:58:18;;;;;;;34.93;16.87;;;1.50;99.90;;;;;;4955306;29;20192;-87
2023/02/06 03:01:06;;;;;;;42.80;18.07;;;1.50;99.90;;;;;;4955011;29;20204;-86
2023/02/06 03:03:36;;;;;;;37.60;15.93;;;1.60;99.90;;;;;;4956139;28;20565;-87
2023/02/06 03:06:20;;;;;;;35.03;16.00;;;1.60;99.90;;;;;;4970897;28;20247;-87
2023/02/06 03:09:08;;;;;;;36.27;16.73;;;1.50;99.90;;;;;;4975024;28;20176;-88
2023/02/06 03:11:39;;;;;;;39.93;16.77;;;1.50;99.90;;;;;;4974638;28;20311;-88
2023/02/06 03:14:07;;;;;;;35.33;15.63;;;1.50;99.90;;;;;;4975395;28;20199;-86
2023/02/06 03:16:51;;;;;;;37.23;18.83;;;1.50;99.90;;;;;;4975020;28;20270;-85
2023/02/06 03:19:29;;;;;;;38.37;17.27;;;1.50;99.90;;;;;;4975868;28;20169;-89
2023/02/06 03:21:54;;;;;;;38.00;16.93;;;1.50;99.90;;;;;;4974891;28;20206;-88
2023/02/06 03:24:25;;;;;;;47.47;17.23;;;1.50;99.90;;;;;;4977817;28;20386;-87
2023/02/06 03:27:01;;;;;;;32.47;15.97;;;1.50;99.90;;;;;;4979357;28;20599;-87
2023/02/06 03:29:30;;;;;;;36.37;15.87;;;1.50;99.90;;;;;;4978842;28;20180;-88
2023/02/06 03:32:00;;;;;;;31.97;15.80;;;1.50;99.90;;;;;;4979719;28;20211;-89
2023/02/06 03:34:50;;;;;;;32.93;15.47;;;1.50;99.90;;;;;;4978278;28;21259;-88
2023/02/06 03:37:16;;;;;;;35.37;15.97;;;1.40;99.90;;;;;;4978844;28;20494;-87
2023/02/06 03:39:42;;;;;;;29.90;14.53;;;1.50;99.90;;;;;;4977560;28;20169;-88
2023/02/06 03:42:11;;;;;;;34.13;14.80;;;1.50;99.90;;;;;;4979285;28;20304;-87
2023/02/06 03:44:41;;;;;;;28.77;14.00;;;1.40;99.90;;;;;;4978360;28;20263;-89
2023/02/06 03:47:10;;;;;;;32.10;14.17;;;1.40;99.90;;;;;;4978604;28;20180;-88
2023/02/06 03:49:39;;;;;;;31.40;14.03;;;1.50;99.90;;;;;;5412464;23;20194;-83
2023/02/06 03:52:09;;;;;;;34.13;14.57;;;1.50;99.90;;;;;;4956724;28;20193;-83
2023/02/06 03:54:38;;;;;;;34.17;15.47;;;1.50;99.90;;;;;;4958975;29;20205;-84
2023/02/06 03:57:07;;;;;;;36.03;15.33;;;1.50;99.90;;;;;;4958967;29;20173;-84
2023/02/06 03:59:32;;;;;;;33.53;16.33;;;1.50;99.90;;;;;;4958818;29;20207;-84
2023/02/06 04:02:01;;;;;;;37.83;16.70;;;1.50;99.90;;;;;;4958691;28;20644;-84
2023/02/06 04:04:31;;;;;;;28.37;14.43;;;1.50;99.90;;;;;;4957992;28;20545;-84
2023/02/06 04:07:00;;;;;;;33.43;16.23;;;1.50;99.90;;;;;;4957616;28;20185;-84
2023/02/06 04:09:26;;;;;;;32.03;14.47;;;1.50;99.90;;;;;;4957803;28;20189;-84
2023/02/06 04:11:51;;;;;;;32.53;15.07;;;1.40;99.90;;;;;;4958901;29;20192;-83
2023/02/06 04:14:17;;;;;;;28.07;13.53;;;1.40;99.90;;;;;;4957267;28;20185;-84
2023/02/06 04:16:43;;;;;;;23.17;12.93;;;1.40;99.90;;;;;;4958428;29;20675;-82
2023/02/06 04:19:09;;;;;;;33.17;14.83;;;1.50;99.90;;;;;;4958190;29;20600;-83
2023/02/06 04:21:34;;;;;;;30.73;14.73;;;1.50;99.90;;;;;;4956260;28;20308;-84
2023/02/06 04:24:00;;;;;;;27.80;14.50;;;1.40;99.90;;;;;;4957298;29;20170;-84
2023/02/06 04:26:26;;;;;;;33.47;15.10;;;1.50;99.90;;;;;;4958172;29;20181;-83
2023/02/06 04:28:51;;;;;;;30.70;13.80;;;1.50;99.90;;;;;;4956987;28;20181;-82
2023/02/06 04:31:17;;;;;;;25.63;13.73;;;1.40;99.90;;;;;;4957081;28;20643;-83
2023/02/06 04:33:43;;;;;;;30.33;13.50;;;1.40;99.90;;;;;;4957944;28;20191;-82
2023/02/06 04:36:09;;;;;;;29.53;14.37;;;1.40;99.90;;;;;;4956227;28;20185;-83
2023/02/06 04:38:35;;;;;;;26.90;13.80;;;1.40;99.90;;;;;;4958288;28;20197;-83
2023/02/06 04:41:05;;;;;;;24.90;13.53;;;1.40;99.90;;;;;;4956721;29;20205;-83
2023/02/06 04:43:32;;;;;;;28.17;13.23;;;1.40;99.90;;;;;;4958017;28;20177;-82
2023/02/06 04:45:58;;;;;;;32.03;13.70;;;1.40;99.90;;;;;;4958057;28;20215;-82
2023/02/06 04:48:24;;;;;;;30.57;14.27;;;1.40;99.90;;;;;;4957829;28;20256;-82
2023/02/06 04:50:50;;;;;;;28.73;13.43;;;1.40;99.90;;;;;;4956028;28;20241;-83
2023/02/06 04:53:16;;;;;;;31.47;12.90;;;1.40;99.90;;;;;;4956542;29;20584;-83
2023/02/06 04:55:42;;;;;;;25.97;13.53;;;1.30;99.90;;;;;;4962917;28;20202;-83
2023/02/06 04:58:08;;;;;;;31.03;14.67;;;1.30;99.90;;;;;;4976976;28;20595;-83
2023/02/06 05:00:34;;;;;;;28.70;14.00;;;1.30;99.90;;;;;;4975548;28;20212;-83
2023/02/06 05:03:00;;;;;;;34.93;14.17;;;1.30;99.90;;;;;;4975669;28;20575;-83
2023/02/06 05:05:26;;;;;;;25.57;13.37;;;1.40;99.90;;;;;;4966038;28;20185;-83
2023/02/06 05:07:51;;;;;;;26.30;13.87;;;1.40;99.90;;;;;;4957650;29;20185;-83
2023/02/06 05:10:17;;;;;;;31.20;14.53;;;1.40;99.90;;;;;;4957562;28;20186;-83
2023/02/06 05:12:43;;;;;;;33.43;14.37;;;1.30;99.90;;;;;;4956123;29;20627;-83
2023/02/06 05:15:09;;;;;;;28.17;13.90;;;1.30;99.90;;;;;;4957544;29;20188;-83
2023/02/06 05:17:35;;;;;;;29.03;14.30;;;1.30;99.90;;;;;;4957361;28;20173;-82
2023/02/06 05:20:01;;;;;;;29.90;13.87;;;1.30;99.90;;;;;;4956614;28;20184;-83
2023/02/06 05:22:26;;;;;;;28.93;13.63;;;1.30;99.90;;;;;;4957497;28;20601;-83
2023/02/06 05:24:52;;;;;;;30.27;14.30;;;1.20;99.90;;;;;;4956157;29;20271;-83
2023/02/06 05:27:18;;;;;;;32.00;13.57;;;1.30;99.90;;;;;;4957125;29;20184;-83
2023/02/06 05:29:44;;;;;;;29.33;14.30;;;1.30;99.90;;;;;;4955919;29;20644;-83
2023/02/06 05:32:09;;;;;;;30.97;14.83;;;1.20;99.90;;;;;;4955730;29;20185;-83
2023/02/06 05:34:35;;;;;;;34.73;15.30;;;1.20;99.90;;;;;;4955809;29;20540;-83
2023/02/06 05:37:01;;;;;;;26.63;14.37;;;1.20;99.90;;;;;;4956940;29;20205;-83
2023/02/06 05:39:27;;;;;;;26.77;13.93;;;1.10;99.90;;;;;;4956962;29;20561;-82
2023/02/06 05:41:52;;;;;;;28.27;13.70;;;1.10;99.90;;;;;;4942603;29;20264;-83
2023/02/06 05:44:18;;;;;;;31.87;14.53;;;1.10;99.90;;;;;;4936439;29;20182;-83
2023/02/06 05:46:47;;;;;;;30.37;14.50;;;1.10;99.90;;;;;;4936413;29;20193;-82
2023/02/06 05:49:13;;;;;;;33.23;14.57;;;1.10;99.90;;;;;;4936337;29;20204;-82
2023/02/06 05:51:38;;;;;;;32.73;14.30;;;1.10;99.90;;;;;;4946819;29;20679;-83
2023/02/06 05:54:04;;;;;;;38.23;15.57;;;1.20;99.90;;;;;;4937496;29;20175;-83
2023/02/06 05:56:30;;;;;;;31.57;14.13;;;1.10;99.90;;;;;;4941947;29;20325;-82
2023/02/06 05:58:56;;;;;;;32.33;15.50;;;1.10;99.90;;;;;;4949893;29;20189;-81
2023/02/06 06:01:21;;;;;;;26.43;13.73;;;1.10;99.90;;;;;;4954779;28;20513;-82
2023/02/06 06:03:48;;;;;;;27.50;13.40;;;1.10;99.90;;;;;;4953761;29;20185;-83
2023/02/06 06:06:14;;;;;;;28.40;13.50;;;1.10;99.90;;;;;;4954807;29;20213;-82
2023/02/06 06:08:40;;;;;;;31.47;14.97;;;1.10;99.90;;;;;;4953883;29;20545;-84
2023/02/06 06:11:06;;;;;;;28.60;15.03;;;1.10;99.90;;;;;;4955870;28;20186;-83
2023/02/06 06:13:32;;;;;;;30.87;15.90;;;1.20;99.90;;;;;;4954554;28;20613;-83
2023/02/06 06:15:57;;;;;;;30.83;16.73;;;1.20;99.90;;;;;;4956089;29;20188;-84
2023/02/06 06:18:23;;;;;;;35.67;17.20;;;1.10;99.90;;;;;;4955079;28;20184;-82
2023/02/06 06:20:49;;;;;;;32.87;16.27;;;1.10;99.90;;;;;;4954040;29;20216;-84
2023/02/06 06:23:15;;;;;;;28.77;15.57;;;1.10;99.90;;;;;;4956031;28;20529;-83
2023/02/06 06:25:41;;;;;;;30.87;16.27;;;1.10;99.90;;;;;;4956288;28;20181;-83
2023/02/06 06:28:07;;;;;;;36.10;15.93;;;1.10;99.90;;;;;;4968042;28;20184;-82
2023/02/06 06:30:32;;;;;;;31.67;14.10;;;1.10;99.90;;;;;;4974150;28;20192;-83
2023/02/06 06:32:58;;;;;;;35.17;14.27;;;1.10;99.90;;;;;;4973886;28;20200;-83
2023/02/06 06:35:24;;;;;;;33.07;15.23;;;1.10;99.90;;;;;;4965931;28;20228;-83
2023/02/06 06:37:50;;;;;;;27.07;14.10;;;1.00;99.90;;;;;;4956309;29;20174;-83
2023/02/06 06:40:16;;;;;;;36.13;15.73;;;1.00;99.90;;;;;;4955791;28;20215;-82
2023/02/06 06:42:42;;;;;;;38.77;15.77;;;1.00;99.90;;;;;;4955853;28;20192;-82
2023/02/06 06:45:08;;;;;;;30.80;14.00;;;1.00;99.90;;;;;;4954859;29;20191;-82
2023/02/06 06:47:34;;;;;;;29.00;13.87;;;1.00;99.90;;;;;;4954658;28;20563;-82
2023/02/06 06:49:59;;;;;;;27.87;14.50;;;1.00;99.90;;;;;;4954844;29;20233;-83
2023/02/06 06:52:25;;;;;;;31.10;15.03;;;1.00;99.90;;;;;;4954455;29;20191;-82
2023/02/06 06:54:51;;;;;;;28.50;13.80;;;1.00;99.90;;;;;;4955773;28;20516;-84
2023/02/06 06:57:17;;;;;;;31.90;15.23;;;1.00;99.90;;;;;;4953784;28;20216;-83
2023/02/06 06:59:43;;;;;;;28.40;14.23;;;1.00;99.90;;;;;;4954141;28;20180;-84
2023/02/06 07:02:11;;;;;;;33.33;15.07;;;1.00;99.90;;;;;;4955435;28;20614;-82
2023/02/06 07:04:37;;;;;;;33.53;16.07;;;1.00;99.90;;;;;;4954552;29;20197;-83
2023/02/06 07:07:03;;;;;;;30.33;13.47;;;1.00;99.90;;;;;;4954073;28;20212;-82
2023/02/06 07:09:29;;;;;;;29.43;14.30;;;1.00;99.90;;;;;;4955599;29;20180;-84
2023/02/06 07:11:54;;;;;;;28.53;14.37;;;1.10;99.90;;;;;;4954436;28;20528;-83
2023/02/06 07:14:20;;;;;;;32.63;14.93;;;1.10;99.90;;;;;;4954317;28;20184;-82
2023/02/06 07:16:46;;;;;;;26.03;14.80;;;1.00;99.90;;;;;;4954456;29;20173;-82
2023/02/06 07:19:12;;;;;;;30.63;14.00;;;1.00;99.90;;;;;;4955196;29;20184;-82
2023/02/06 07:21:37;;;;;;;29.50;14.20;;;1.10;99.90;;;;;;4954012;29;20243;-84
2023/02/06 07:24:04;;;;;;;31.17;15.23;;;1.00;99.90;;;;;;4955577;29;20182;-83
2023/02/06 07:26:30;;;;;;;29.83;15.40;;;1.00;99.90;;;;;;4954209;28;20183;-83
2023/02/06 07:28:55;;;;;;;35.00;15.87;;;1.00;99.90;;;;;;4955134;29;20636;-83
2023/02/06 07:31:21;;;;;;;30.83;14.67;;;1.00;99.90;;;;;;4953967;28;20191;-82
2023/02/06 07:33:47;;;;;;;30.23;15.13;;;1.00;99.90;;;;;;4954116;28;20205;-82
2023/02/06 07:36:14;;;;;;;33.33;14.77;;;1.00;99.90;;;;;;4955233;29;20268;-83
2023/02/06 07:38:40;;;;;;;29.70;14.67;;;1.00;99.90;;;;;;4955390;28;20173;-83
2023/02/06 07:41:05;;;;;;;31.67;14.07;;;1.10;99.90;;;;;;4953919;28;20216;-83
2023/02/06 07:43:31;;;;;;;28.07;13.67;;;1.10;99.90;;;;;;4955362;29;20629;-82
2023/02/06 07:45:59;;;;;;;31.27;13.90;;;1.10;99.90;;;;;;4955431;29;20775;-82
2023/02/06 07:48:25;;;;;;;30.80;13.90;;;1.20;99.90;;;;;;4954095;28;20186;-82
2023/02/06 07:50:51;;;;;;;27.83;13.00;;;1.20;99.90;;;;;;4954729;28;20572;-83
2023/02/06 07:53:16;;;;;;;23.80;12.73;;;1.30;99.90;;;;;;4955188;29;20173;-82
2023/02/06 07:55:42;;;;;;;28.33;14.03;;;1.30;99.90;;;;;;4955245;29;20190;-82
2023/02/06 07:58:10;;;;;;;31.40;14.13;;;1.30;99.90;;;;;;4955241;29;20174;-83
2023/02/06 08:00:37;;;;;;;28.30;13.97;;;1.20;99.90;;;;;;4953674;29;20216;-83
2023/02/06 08:03:03;;;;;;;26.60;13.77;;;1.10;99.90;;;;;;4953725;28;20235;-83
2023/02/06 08:05:30;;;;;;;28.10;13.73;;;1.20;99.90;;;;;;4954739;28;20237;-83
2023/02/06 08:07:56;;;;;;;30.87;13.30;;;1.20;99.90;;;;;;4954948;29;20515;-83
2023/02/06 08:10:21;;;;;;;35.73;15.27;;;1.10;99.90;;;;;;4955620;28;20182;-83
2023/02/06 08:12:47;;;;;;;27.93;13.27;;;1.20;99.90;;;;;;4958334;29;20185;-83
2023/02/06 08:15:13;;;;;;;26.93;14.50;;;1.10;99.90;;;;;;4958706;28;20168;-84
2023/02/06 08:17:42;;;;;;;25.43;13.50;;;1.10;99.90;;;;;;4958751;29;20173;-84
2023/02/06 08:20:09;;;;;;;28.90;13.90;;;1.10;99.90;;;;;;4957089;28;20178;-83
2023/02/06 08:22:35;;;;;;;27.40;13.37;;;1.20;99.90;;;;;;4957866;29;20240;-82
2023/02/06 08:25:02;;;;;;;25.97;13.80;;;1.20;99.90;;;;;;4958457;28;20252;-84
2023/02/06 08:27:27;;;;;;;27.43;13.63;;;1.20;99.90;;;;;;4957091;29;20182;-84
2023/02/06 08:29:53;;;;;;;26.03;13.47;;;1.20;99.90;;;;;;4957051;28;20240;-84
2023/02/06 08:32:19;;;;;;;24.10;13.17;;;1.30;99.90;;;;;;4958245;28;20709;-84
2023/02/06 08:34:45;;;;;;;24.70;12.53;;;1.30;99.90;;;;;;4957218;28;20186;-83
2023/02/06 08:37:10;;;;;;;25.47;13.73;;;1.30;99.90;;;;;;4957995;29;20647;-83
2023/02/06 08:39:37;;;;;;;26.50;13.17;;;1.20;99.90;;;;;;4958071;28;20180;-84
2023/02/06 08:42:03;;;;;;;24.63;13.07;;;1.20;99.90;;;;;;4956786;28;20221;-84
2023/02/06 08:44:29;;;;;;;28.53;12.40;;;1.30;99.90;;;;;;4957481;29;20576;-83
2023/02/06 08:46:54;;;;;;;26.20;12.90;;;1.20;99.90;;;;;;4957977;29;20200;-83
2023/02/06 08:49:22;;;;;;;20.63;10.73;;;1.20;99.90;;;;;;4957668;28;20254;-83
2023/02/06 08:51:49;;;;;;;26.87;11.10;;;1.30;99.90;;;;;;4955855;29;20328;-83
2023/02/06 08:54:17;;;;;;;23.70;10.90;;;1.40;99.90;;;;;;4956522;29;20275;-82
2023/02/06 08:56:43;;;;;;;24.20;11.57;;;1.40;99.90;;;;;;4956675;29;20197;-84
2023/02/06 08:59:11;;;;;;;22.07;11.20;;;1.40;99.90;;;;;;4957636;28;20233;-85
2023/02/06 09:01:38;;;;;;;23.23;11.47;;;1.40;99.90;;;;;;4957756;29;20279;-84
2023/02/06 09:04:07;;;;;;;23.23;10.10;;;1.50;99.90;;;;;;4957798;29;20620;-84
2023/02/06 09:06:39;;;;;;;19.87;10.10;;;1.60;99.90;;;;;;4957508;29;20193;-84
2023/02/06 09:09:06;;;;;;;22.13;10.10;;;1.60;99.90;;;;;;4957618;28;20201;-84
2023/02/06 09:11:33;;;;;;;23.97;10.20;;;1.60;99.90;;;;;;4956147;29;20197;-85
2023/02/06 09:14:01;;;;;;;20.07;9.77;;;1.70;99.90;;;;;;4957770;28;20178;-84
2023/02/06 09:16:31;;;;;;;20.67;8.77;;;1.60;99.90;;;;;;4956270;29;20196;-84
2023/02/06 09:19:00;;;;;;;17.63;9.10;;;1.60;99.90;;;;;;4957498;28;20224;-84
2023/02/06 09:21:28;;;;;;;25.53;9.23;;;1.70;99.90;;;;;;4955543;28;20223;-84
2023/02/06 09:23:58;;;;;;;20.43;9.60;;;1.70;99.90;;;;;;4955970;29;20199;-84
2023/02/06 09:26:28;;;;;;;25.07;9.83;;;1.70;99.90;;;;;;4956211;29;20173;-84
2023/02/06 09:28:59;;;;;;;22.60;10.10;;;1.60;99.90;;;;;;4957297;28;20172;-83
2023/02/06 09:31:32;;;;;;;16.30;8.70;;;1.60;99.90;;;;;;4955941;29;20177;-84
2023/02/06 09:34:01;;;;;;;19.70;9.40;;;1.70;99.90;;;;;;4957220;28;20161;-83
2023/02/06 09:36:29;;;;;;;17.37;9.43;;;1.70;99.90;;;;;;4957017;28;20663;-81
2023/02/06 09:38:56;;;;;;;20.80;8.10;;;1.70;99.90;;;;;;4955553;28;20712;-81
2023/02/06 09:41:25;;;;;;;19.70;8.33;;;1.70;99.90;;;;;;4956997;29;20205;-82
2023/02/06 09:44:21;;;;;;;17.07;8.10;;;1.70;99.90;;;;;;4956376;29;20679;-82
2023/02/06 09:47:10;;;;;;;19.93;7.97;;;1.70;99.90;;;;;;4947763;28;20652;-82
2023/02/06 09:50:25;;;;;;;19.30;8.70;;;1.70;99.90;;;;;;4961174;28;20172;-83
2023/02/06 09:52:51;;;;;;;19.53;7.13;;;1.70;99.90;;;;;;4967465;28;20283;-84
2023/02/06 09:55:35;;;;;;;14.93;7.07;;;1.70;99.90;;;;;;4976244;28;20670;-84
2023/02/06 09:58:38;;;;;;;47.90;19.63;;;1.70;99.90;;;;;;4975979;28;20183;-84
2023/02/06 10:01:03;;;;;;;19.17;7.30;;;1.80;99.90;;;;;;4973819;28;20280;-83
2023/02/06 10:03:41;;;;;;;9.80;5.70;;;1.80;99.90;;;;;;4975643;28;20673;-84
2023/02/06 10:06:43;;;;;;;12.27;5.20;;;1.80;99.90;;;;;;4960873;28;20189;-84
2023/02/06 10:09:17;;;;;;;21.97;14.17;;;1.80;99.90;;;;;;4956510;29;20639;-84
2023/02/06 10:12:11;;;;;;;15.83;8.30;;;1.80;99.90;;;;;;4956572;29;20182;-84
2023/02/06 10:14:47;;;;;;;11.57;5.73;;;1.80;99.90;;;;;;4955433;28;20200;-83
2023/02/06 10:17:27;;;;;;;11.67;5.60;;;1.90;99.90;;;;;;4955176;28;20620;-84
2023/02/06 10:20:01;;;;;;;12.67;7.20;;;1.90;99.90;;;;;;4955134;28;20180;-84
2023/02/06 10:22:56;;;;;;;14.23;6.03;;;1.90;99.90;;;;;;4956096;29;20596;-84
2023/02/06 10:25:28;;;;;;;16.30;7.00;;;1.90;99.90;;;;;;4947494;28;20699;-82
2023/02/06 10:27:59;;;;;;;14.73;6.37;;;1.80;99.90;;;;;;4956352;29;20554;-83
2023/02/06 10:30:51;;;;;;;12.87;6.30;;;1.80;99.90;;;;;;4954930;28;20224;-82
2023/02/06 10:33:43;;;;;;;9.37;5.13;;;1.80;99.90;;;;;;4955419;28;20173;-84
2023/02/06 10:36:15;;;;;;;9.17;5.40;;;1.90;99.90;;;;;;4956058;29;20620;-83
2023/02/06 10:39:10;;;;;;;12.03;4.73;;;1.90;99.90;;;;;;4955889;29;20168;-82
2023/02/06 10:41:41;;;;;;;11.23;4.73;;;1.90;99.90;;;;;;4942239;28;20256;-84
2023/02/06 10:44:20;;;;;;;9.13;5.67;;;2.00;99.90;;;;;;4954203;29;20208;-82
2023/02/06 10:46:49;;;;;;;6.97;3.47;;;2.00;99.90;;;;;;4954574;28;20256;-83
2023/02/06 10:49:29;;;;;;;10.20;4.63;;;2.20;99.90;;;;;;4955818;29;20157;-82
2023/02/06 10:52:21;;;;;;;7.83;3.53;;;2.20;99.90;;;;;;4943086;29;20253;-82
2023/02/06 10:54:52;;;;;;;4.27;2.70;;;2.20;99.90;;;;;;4953028;29;20184;-83
2023/02/06 10:57:23;;;;;;;10.70;4.97;;;2.30;99.90;;;;;;4955728;28;20157;-82
2023/02/06 10:59:52;;;;;;;10.10;4.40;;;2.40;99.90;;;;;;4947394;29;20190;-83
2023/02/06 11:02:43;;;;;;;16.60;7.63;;;2.30;99.90;;;;;;4936236;29;20248;-82
2023/02/06 11:05:26;;;;;;;16.00;7.80;;;2.30;99.90;;;;;;4942418;28;20192;-83
2023/02/06 11:07:55;;;;;;;8.27;4.50;;;2.20;99.90;;;;;;4954482;28;20256;-83
2023/02/06 11:10:24;;;;;;;7.40;3.70;;;2.30;99.90;;;;;;4954162;28;20181;-83
2023/02/06 11:13:05;;;;;;;4.97;2.47;;;2.30;99.90;;;;;;4955441;29;20184;-82
2023/02/06 11:15:56;;;;;;;4.33;2.40;;;2.30;99.90;;;;;;4955440;29;20168;-83
2023/02/06 11:18:28;;;;;;;5.03;2.40;;;2.50;99.90;;;;;;4955628;29;20292;-83
2023/02/06 11:20:54;;;;;;;3.73;2.20;;;2.40;99.90;;;;;;4953602;28;20235;-83
2023/02/06 11:23:30;;;;;;;6.07;2.67;;;2.50;99.90;;;;;;4954257;28;20506;-83
2023/02/06 11:26:17;;;;;;;11.00;5.80;;;2.50;99.90;;;;;;4955626;29;20367;-83
2023/02/06 11:28:55;;;;;;;8.43;2.80;;;2.50;99.90;;;;;;4955411;29;20184;-83
2023/02/06 11:31:40;;;;;;;4.43;2.87;;;2.60;99.90;;;;;;4954080;28;20620;-82
2023/02/06 11:34:14;;;;;;;7.03;2.63;;;2.70;99.90;;;;;;4955297;29;20263;-83
2023/02/06 11:36:41;;;;;;;6.40;2.73;;;2.80;99.90;;;;;;4954998;29;20185;-83
2023/02/06 11:39:29;;;;;;;4.80;1.97;;;2.90;99.90;;;;;;4955169;29;20255;-84
2023/02/06 11:42:14;;;;;;;5.90;2.43;;;2.90;99.90;;;;;;4955305;29;20245;-82
2023/02/06 11:44:42;;;;;;;3.57;2.20;;;2.90;99.90;;;;;;4956089;28;20188;-82
2023/02/06 11:47:28;;;;;;;6.90;2.80;;;2.80;99.90;;;;;;4958927;28;20174;-82
2023/02/06 11:49:55;;;;;;;6.07;2.40;;;2.80;99.90;;;;;;4957441;28;20275;-81
2023/02/06 11:52:32;;;;;;;6.30;2.30;;;2.80;99.90;;;;;;4957381;29;20177;-83
2023/02/06 11:55:01;;;;;;;4.77;2.50;;;2.80;99.90;;;;;;4958909;28;20217;-82
2023/02/06 11:57:31;;;;;;;3.70;2.03;;;2.80;99.90;;;;;;4958743;29;20284;-82
2023/02/06 12:00:17;;;;;;;4.53;2.63;;;2.80;99.90;;;;;;4958683;29;20192;-83
2023/02/06 12:02:49;;;;;;;8.67;4.47;;;2.80;99.90;;;;;;4957493;28;20204;-81
2023/02/06 12:05:17;;;;;;;5.27;3.03;;;2.90;99.90;;;;;;4958407;29;20219;-82
2023/02/06 12:08:01;;;;;;;5.37;2.30;;;3.10;99.90;;;;;;4958662;28;20709;-82
2023/02/06 12:10:30;;;;;;;9.43;2.47;;;3.40;99.90;;;;;;4958461;29;20548;-82
2023/02/06 12:13:19;;;;;;;4.77;2.40;;;3.50;99.90;;;;;;4958600;28;20184;-83
2023/02/06 12:15:49;;;;;;;9.77;2.77;;;3.40;99.90;;;;;;4952355;28;20208;-83
2023/02/06 12:18:23;;;;;;;5.57;2.80;;;3.30;99.90;;;;;;4957094;28;20603;-82
2023/02/06 12:20:59;;;;;;;4.07;2.20;;;3.20;99.90;;;;;;4956635;28;20723;-82
2023/02/06 12:23:34;;;;;;;3.13;1.77;;;3.10;99.90;;;;;;4958472;29;20180;-82
2023/02/06 12:26:04;;;;;;;2.33;1.80;;;3.10;99.90;;;;;;4958393;29;20172;-81
2023/02/06 12:28:41;;;;;;;3.90;1.77;;;3.10;99.90;;;;;;4957135;28;20189;-82
2023/02/06 12:31:14;;;;;;;3.17;1.77;;;3.20;99.90;;;;;;4958175;29;20601;-85
2023/02/06 12:33:46;;;;;;;2.80;1.57;;;3.30;99.90;;;;;;4956869;28;20212;-82
2023/02/06 12:36:27;;;;;;;2.63;2.10;;;3.20;99.90;;;;;;4957145;29;20197;-85
2023/02/06 12:39:00;;;;;;;4.03;1.97;;;3.10;99.90;;;;;;4958174;28;20228;-82
2023/02/06 12:41:45;;;;;;;10.13;2.10;;;3.10;99.90;;;;;;4958048;29;20721;-83
2023/02/06 12:44:23;;;;;;;3.80;2.10;;;3.20;99.90;;;;;;4956818;29;20204;-83
2023/02/06 12:47:00;;;;;;;2.70;2.03;;;3.20;99.90;;;;;;4958015;29;20615;-82
2023/02/06 12:49:34;;;;;;;3.53;2.40;;;3.20;99.90;;;;;;4957776;29;20164;-81
2023/02/06 12:52:16;;;;;;;5.63;2.80;;;3.20;99.90;;;;;;4956241;29;20193;-83
2023/02/06 12:54:54;;;;;;;4.10;2.53;;;3.20;99.90;;;;;;4957665;28;20165;-81
2023/02/06 12:57:26;;;;;;;3.43;2.40;;;3.20;99.90;;;;;;4957432;29;20172;-82
2023/02/06 13:00:21;;;;;;;5.77;2.40;;;3.20;99.90;;;;;;4956341;29;20178;-82
2023/02/06 13:02:49;;;;;;;3.20;2.23;;;3.20;99.90;;;;;;4957752;28;20185;-83